sensor_id;sensor_type;location;lat;lon;timestamp;P1;durP1;ratioP1;P2;durP2;ratioP2
7027;SDS011;3555;53.248;10.336;2023-03-23T00:00:59;8.07;;;3.27;;
7027;SDS011;3555;53.248;10.336;2023-03-23T00:03:27;6.83;;;3.87;;
7027;SDS011;3555;53.248;10.336;2023-03-23T00:05:56;6.07;;;3.50;;
7027;SDS011;3555;53.248;10.336;2023-03-23T00:08:31;5.37;;;3.30;;
7027;SDS011;3555;53.248;10.336;2023-03-23T00:10:58;9.17;;;3.47;;
7027;SDS011;3555;53.248;10.336;2023-03-23T00:13:26;4.83;;;3.77;;
7027;SDS011;3555;53.248;10.336;2023-03-23T00:15:54;6.83;;;3.20;;
7027;SDS011;3555;53.248;10.336;2023-03-23T00:18:23;10.60;;;3.43;;
7027;SDS011;3555;53.248;10.336;2023-03-23T00:20:51;9.17;;;3.63;;
7027;SDS011;3555;53.248;10.336;2023-03-23T00:23:19;6.83;;;4.23;;
7027;SDS011;3555;53.248;10.336;2023-03-23T00:25:49;8.47;;;3.50;;
7027;SDS011;3555;53.248;10.336;2023-03-23T00:28:18;5.90;;;3.43;;
7027;SDS011;3555;53.248;10.336;2023-03-23T00:30:53;7.87;;;4.10;;
7027;SDS011;3555;53.248;10.336;2023-03-23T00:33:21;5.13;;;3.63;;
7027;SDS011;3555;53.248;10.336;2023-03-23T00:35:48;8.37;;;3.77;;
7027;SDS011;3555;53.248;10.336;2023-03-23T00:38:17;7.10;;;3.63;;
7027;SDS011;3555;53.248;10.336;2023-03-23T00:40:44;6.00;;;4.00;;
7027;SDS011;3555;53.248;10.336;2023-03-23T00:43:13;6.53;;;3.97;;
7027;SDS011;3555;53.248;10.336;2023-03-23T00:45:41;7.47;;;4.00;;
7027;SDS011;3555;53.248;10.336;2023-03-23T00:48:09;9.63;;;3.93;;
7027;SDS011;3555;53.248;10.336;2023-03-23T00:50:37;6.27;;;4.00;;
7027;SDS011;3555;53.248;10.336;2023-03-23T00:53:06;9.20;;;5.03;;
7027;SDS011;3555;53.248;10.336;2023-03-23T00:55:33;7.90;;;4.27;;
7027;SDS011;3555;53.248;10.336;2023-03-23T00:58:00;5.90;;;4.40;;
7027;SDS011;3555;53.248;10.336;2023-03-23T01:00:28;7.10;;;4.40;;
7027;SDS011;3555;53.248;10.336;2023-03-23T01:02:55;6.53;;;4.10;;
7027;SDS011;3555;53.248;10.336;2023-03-23T01:05:22;6.53;;;4.40;;
7027;SDS011;3555;53.248;10.336;2023-03-23T01:07:49;11.50;;;4.97;;
7027;SDS011;3555;53.248;10.336;2023-03-23T01:10:16;12.23;;;4.83;;
7027;SDS011;3555;53.248;10.336;2023-03-23T01:12:43;9.33;;;5.20;;
7027;SDS011;3555;53.248;10.336;2023-03-23T01:15:14;8.73;;;4.70;;
7027;SDS011;3555;53.248;10.336;2023-03-23T01:17:44;9.30;;;4.77;;
7027;SDS011;3555;53.248;10.336;2023-03-23T01:20:11;9.73;;;5.17;;
7027;SDS011;3555;53.248;10.336;2023-03-23T01:22:39;8.10;;;5.23;;
7027;SDS011;3555;53.248;10.336;2023-03-23T01:25:07;11.17;;;4.90;;
7027;SDS011;3555;53.248;10.336;2023-03-23T01:27:35;10.60;;;5.30;;
7027;SDS011;3555;53.248;10.336;2023-03-23T01:30:02;8.90;;;5.53;;
7027;SDS011;3555;53.248;10.336;2023-03-23T01:32:30;11.23;;;5.80;;
7027;SDS011;3555;53.248;10.336;2023-03-23T01:34:59;8.63;;;5.77;;
7027;SDS011;3555;53.248;10.336;2023-03-23T01:37:26;6.70;;;5.03;;
7027;SDS011;3555;53.248;10.336;2023-03-23T01:39:54;8.43;;;5.37;;
7027;SDS011;3555;53.248;10.336;2023-03-23T01:42:21;8.87;;;5.93;;
7027;SDS011;3555;53.248;10.336;2023-03-23T01:47:55;9.90;;;5.30;;
7027;SDS011;3555;53.248;10.336;2023-03-23T01:50:29;9.03;;;5.50;;
7027;SDS011;3555;53.248;10.336;2023-03-23T01:53:01;7.70;;;4.70;;
7027;SDS011;3555;53.248;10.336;2023-03-23T01:55:31;8.33;;;5.73;;
7027;SDS011;3555;53.248;10.336;2023-03-23T01:57:58;8.03;;;5.70;;
7027;SDS011;3555;53.248;10.336;2023-03-23T02:00:26;9.03;;;5.40;;
7027;SDS011;3555;53.248;10.336;2023-03-23T02:02:53;10.67;;;6.10;;
7027;SDS011;3555;53.248;10.336;2023-03-23T02:05:26;8.87;;;5.73;;
7027;SDS011;3555;53.248;10.336;2023-03-23T02:07:58;8.73;;;6.20;;
7027;SDS011;3555;53.248;10.336;2023-03-23T02:10:28;10.13;;;6.50;;
7027;SDS011;3555;53.248;10.336;2023-03-23T02:12:55;8.60;;;5.83;;
7027;SDS011;3555;53.248;10.336;2023-03-23T02:15:23;7.87;;;6.07;;
7027;SDS011;3555;53.248;10.336;2023-03-23T02:17:53;11.23;;;6.60;;
7027;SDS011;3555;53.248;10.336;2023-03-23T02:20:36;7.53;;;5.77;;
7027;SDS011;3555;53.248;10.336;2023-03-23T02:26:28;8.47;;;6.17;;
7027;SDS011;3555;53.248;10.336;2023-03-23T02:29:10;10.13;;;6.20;;
7027;SDS011;3555;53.248;10.336;2023-03-23T02:31:47;9.23;;;6.47;;
7027;SDS011;3555;53.248;10.336;2023-03-23T02:34:27;7.80;;;5.97;;
7027;SDS011;3555;53.248;10.336;2023-03-23T02:36:56;8.13;;;6.83;;
7027;SDS011;3555;53.248;10.336;2023-03-23T02:39:28;9.33;;;6.50;;
7027;SDS011;3555;53.248;10.336;2023-03-23T02:42:02;11.43;;;7.23;;
7027;SDS011;3555;53.248;10.336;2023-03-23T02:44:32;10.50;;;7.10;;
7027;SDS011;3555;53.248;10.336;2023-03-23T02:47:02;7.73;;;5.80;;
7027;SDS011;3555;53.248;10.336;2023-03-23T02:49:34;10.37;;;6.53;;
7027;SDS011;3555;53.248;10.336;2023-03-23T02:52:04;9.37;;;6.60;;
7027;SDS011;3555;53.248;10.336;2023-03-23T02:54:37;7.60;;;6.00;;
7027;SDS011;3555;53.248;10.336;2023-03-23T02:57:06;12.97;;;6.80;;
7027;SDS011;3555;53.248;10.336;2023-03-23T02:59:33;8.53;;;6.20;;
7027;SDS011;3555;53.248;10.336;2023-03-23T03:02:01;9.30;;;6.50;;
7027;SDS011;3555;53.248;10.336;2023-03-23T03:04:34;11.03;;;6.33;;
7027;SDS011;3555;53.248;10.336;2023-03-23T03:10:04;7.13;;;6.43;;
7027;SDS011;3555;53.248;10.336;2023-03-23T03:12:38;7.30;;;6.53;;
7027;SDS011;3555;53.248;10.336;2023-03-23T03:15:14;6.73;;;5.80;;
7027;SDS011;3555;53.248;10.336;2023-03-23T03:17:51;7.73;;;6.20;;
7027;SDS011;3555;53.248;10.336;2023-03-23T03:20:24;10.73;;;6.80;;
7027;SDS011;3555;53.248;10.336;2023-03-23T03:22:53;6.73;;;5.93;;
7027;SDS011;3555;53.248;10.336;2023-03-23T03:25:21;7.47;;;6.00;;
7027;SDS011;3555;53.248;10.336;2023-03-23T03:27:49;11.53;;;6.30;;
7027;SDS011;3555;53.248;10.336;2023-03-23T03:30:17;6.33;;;5.70;;
7027;SDS011;3555;53.248;10.336;2023-03-23T03:32:51;7.20;;;6.50;;
7027;SDS011;3555;53.248;10.336;2023-03-23T03:35:19;7.67;;;6.87;;
7027;SDS011;3555;53.248;10.336;2023-03-23T03:37:49;8.87;;;6.90;;
7027;SDS011;3555;53.248;10.336;2023-03-23T03:40:17;8.67;;;6.33;;
7027;SDS011;3555;53.248;10.336;2023-03-23T03:42:45;7.67;;;6.37;;
7027;SDS011;3555;53.248;10.336;2023-03-23T03:45:14;8.33;;;6.60;;
7027;SDS011;3555;53.248;10.336;2023-03-23T03:47:42;8.63;;;6.13;;
7027;SDS011;3555;53.248;10.336;2023-03-23T03:50:09;7.90;;;6.27;;
7027;SDS011;3555;53.248;10.336;2023-03-23T03:52:37;12.63;;;6.30;;
7027;SDS011;3555;53.248;10.336;2023-03-23T03:55:07;9.93;;;6.87;;
7027;SDS011;3555;53.248;10.336;2023-03-23T03:57:35;8.60;;;7.33;;
7027;SDS011;3555;53.248;10.336;2023-03-23T04:00:03;8.23;;;6.47;;
7027;SDS011;3555;53.248;10.336;2023-03-23T04:02:39;9.23;;;7.23;;
7027;SDS011;3555;53.248;10.336;2023-03-23T04:05:12;7.73;;;6.93;;
7027;SDS011;3555;53.248;10.336;2023-03-23T04:07:39;9.27;;;7.50;;
7027;SDS011;3555;53.248;10.336;2023-03-23T04:10:09;11.23;;;8.00;;
7027;SDS011;3555;53.248;10.336;2023-03-23T04:12:38;10.03;;;7.57;;
7027;SDS011;3555;53.248;10.336;2023-03-23T04:15:05;10.53;;;8.03;;
7027;SDS011;3555;53.248;10.336;2023-03-23T04:17:35;9.77;;;8.10;;
7027;SDS011;3555;53.248;10.336;2023-03-23T04:20:03;9.03;;;7.20;;
7027;SDS011;3555;53.248;10.336;2023-03-23T04:22:32;9.30;;;7.17;;
7027;SDS011;3555;53.248;10.336;2023-03-23T04:25:00;9.27;;;7.40;;
7027;SDS011;3555;53.248;10.336;2023-03-23T04:27:32;10.03;;;7.07;;
7027;SDS011;3555;53.248;10.336;2023-03-23T04:29:59;12.50;;;7.53;;
7027;SDS011;3555;53.248;10.336;2023-03-23T04:32:26;11.77;;;7.10;;
7027;SDS011;3555;53.248;10.336;2023-03-23T04:34:54;9.87;;;7.33;;
7027;SDS011;3555;53.248;10.336;2023-03-23T04:37:22;9.80;;;7.10;;
7027;SDS011;3555;53.248;10.336;2023-03-23T04:39:53;10.47;;;7.07;;
7027;SDS011;3555;53.248;10.336;2023-03-23T04:42:25;9.37;;;6.83;;
7027;SDS011;3555;53.248;10.336;2023-03-23T04:44:54;8.20;;;6.63;;
7027;SDS011;3555;53.248;10.336;2023-03-23T04:47:21;8.73;;;6.50;;
7027;SDS011;3555;53.248;10.336;2023-03-23T04:49:49;8.20;;;6.13;;
7027;SDS011;3555;53.248;10.336;2023-03-23T04:52:16;10.50;;;6.10;;
7027;SDS011;3555;53.248;10.336;2023-03-23T04:54:45;6.33;;;5.53;;
7027;SDS011;3555;53.248;10.336;2023-03-23T04:57:12;7.13;;;4.93;;
7027;SDS011;3555;53.248;10.336;2023-03-23T04:59:40;8.47;;;5.40;;
7027;SDS011;3555;53.248;10.336;2023-03-23T05:02:09;9.33;;;5.33;;
7027;SDS011;3555;53.248;10.336;2023-03-23T05:04:38;7.53;;;5.33;;
7027;SDS011;3555;53.248;10.336;2023-03-23T05:07:05;6.67;;;4.93;;
7027;SDS011;3555;53.248;10.336;2023-03-23T05:09:32;6.93;;;4.70;;
7027;SDS011;3555;53.248;10.336;2023-03-23T05:12:03;5.30;;;4.80;;
7027;SDS011;3555;53.248;10.336;2023-03-23T05:14:30;8.30;;;4.73;;
7027;SDS011;3555;53.248;10.336;2023-03-23T05:16:57;6.53;;;5.20;;
7027;SDS011;3555;53.248;10.336;2023-03-23T05:19:26;6.80;;;4.80;;
7027;SDS011;3555;53.248;10.336;2023-03-23T05:21:53;6.87;;;4.67;;
7027;SDS011;3555;53.248;10.336;2023-03-23T05:24:20;8.13;;;4.80;;
7027;SDS011;3555;53.248;10.336;2023-03-23T05:26:47;5.53;;;4.67;;
7027;SDS011;3555;53.248;10.336;2023-03-23T05:29:17;7.27;;;4.63;;
7027;SDS011;3555;53.248;10.336;2023-03-23T05:31:44;6.77;;;4.20;;
7027;SDS011;3555;53.248;10.336;2023-03-23T05:34:12;5.47;;;4.33;;
7027;SDS011;3555;53.248;10.336;2023-03-23T05:36:42;5.27;;;4.27;;
7027;SDS011;3555;53.248;10.336;2023-03-23T05:39:10;5.00;;;4.00;;
7027;SDS011;3555;53.248;10.336;2023-03-23T05:41:38;6.17;;;3.97;;
7027;SDS011;3555;53.248;10.336;2023-03-23T05:44:05;7.17;;;3.47;;
7027;SDS011;3555;53.248;10.336;2023-03-23T05:46:33;9.30;;;4.30;;
7027;SDS011;3555;53.248;10.336;2023-03-23T05:48:59;6.87;;;3.67;;
7027;SDS011;3555;53.248;10.336;2023-03-23T05:51:27;6.13;;;3.97;;
7027;SDS011;3555;53.248;10.336;2023-03-23T05:53:56;4.83;;;3.50;;
7027;SDS011;3555;53.248;10.336;2023-03-23T05:56:22;6.37;;;3.90;;
7027;SDS011;3555;53.248;10.336;2023-03-23T05:58:49;5.80;;;3.50;;
7027;SDS011;3555;53.248;10.336;2023-03-23T06:01:16;6.33;;;3.53;;
7027;SDS011;3555;53.248;10.336;2023-03-23T06:03:44;6.53;;;3.80;;
7027;SDS011;3555;53.248;10.336;2023-03-23T06:06:11;5.53;;;3.70;;
7027;SDS011;3555;53.248;10.336;2023-03-23T06:08:38;4.87;;;3.30;;
7027;SDS011;3555;53.248;10.336;2023-03-23T06:11:06;4.37;;;3.50;;
7027;SDS011;3555;53.248;10.336;2023-03-23T06:13:33;6.07;;;3.57;;
7027;SDS011;3555;53.248;10.336;2023-03-23T06:16:00;5.27;;;2.97;;
7027;SDS011;3555;53.248;10.336;2023-03-23T06:18:27;5.80;;;3.40;;
7027;SDS011;3555;53.248;10.336;2023-03-23T06:20:56;3.83;;;2.73;;
7027;SDS011;3555;53.248;10.336;2023-03-23T06:23:23;7.10;;;2.93;;
7027;SDS011;3555;53.248;10.336;2023-03-23T06:25:52;5.37;;;3.20;;
7027;SDS011;3555;53.248;10.336;2023-03-23T06:28:23;4.13;;;2.80;;
7027;SDS011;3555;53.248;10.336;2023-03-23T06:30:50;5.00;;;2.50;;
7027;SDS011;3555;53.248;10.336;2023-03-23T06:33:17;4.67;;;2.80;;
7027;SDS011;3555;53.248;10.336;2023-03-23T06:35:44;4.07;;;2.60;;
7027;SDS011;3555;53.248;10.336;2023-03-23T06:38:11;4.17;;;3.00;;
7027;SDS011;3555;53.248;10.336;2023-03-23T06:40:38;7.67;;;2.53;;
7027;SDS011;3555;53.248;10.336;2023-03-23T06:43:06;6.27;;;2.43;;
7027;SDS011;3555;53.248;10.336;2023-03-23T06:45:34;3.50;;;2.20;;
7027;SDS011;3555;53.248;10.336;2023-03-23T06:48:01;2.73;;;2.27;;
7027;SDS011;3555;53.248;10.336;2023-03-23T06:50:28;3.77;;;2.10;;
7027;SDS011;3555;53.248;10.336;2023-03-23T06:52:55;3.77;;;2.43;;
7027;SDS011;3555;53.248;10.336;2023-03-23T06:55:22;3.53;;;2.33;;
7027;SDS011;3555;53.248;10.336;2023-03-23T06:57:49;3.50;;;2.30;;
7027;SDS011;3555;53.248;10.336;2023-03-23T07:00:16;4.30;;;3.00;;
7027;SDS011;3555;53.248;10.336;2023-03-23T07:02:44;4.20;;;2.47;;
7027;SDS011;3555;53.248;10.336;2023-03-23T07:05:12;2.87;;;2.47;;
7027;SDS011;3555;53.248;10.336;2023-03-23T07:07:39;4.57;;;2.17;;
7027;SDS011;3555;53.248;10.336;2023-03-23T07:10:07;2.97;;;2.40;;
7027;SDS011;3555;53.248;10.336;2023-03-23T07:12:37;2.40;;;2.20;;
7027;SDS011;3555;53.248;10.336;2023-03-23T07:15:05;4.10;;;2.87;;
7027;SDS011;3555;53.248;10.336;2023-03-23T07:17:35;4.77;;;2.40;;
7027;SDS011;3555;53.248;10.336;2023-03-23T07:20:04;3.83;;;2.10;;
7027;SDS011;3555;53.248;10.336;2023-03-23T07:22:31;2.77;;;1.87;;
7027;SDS011;3555;53.248;10.336;2023-03-23T07:24:59;5.33;;;2.13;;
7027;SDS011;3555;53.248;10.336;2023-03-23T07:27:26;2.73;;;2.20;;
7027;SDS011;3555;53.248;10.336;2023-03-23T07:29:53;3.03;;;2.20;;
7027;SDS011;3555;53.248;10.336;2023-03-23T07:32:20;3.60;;;2.20;;
7027;SDS011;3555;53.248;10.336;2023-03-23T07:34:47;4.03;;;2.17;;
7027;SDS011;3555;53.248;10.336;2023-03-23T07:37:16;2.20;;;1.80;;
7027;SDS011;3555;53.248;10.336;2023-03-23T07:39:43;3.83;;;2.17;;
7027;SDS011;3555;53.248;10.336;2023-03-23T07:42:10;5.00;;;1.90;;
7027;SDS011;3555;53.248;10.336;2023-03-23T07:44:37;3.60;;;1.90;;
7027;SDS011;3555;53.248;10.336;2023-03-23T07:47:03;2.10;;;1.70;;
7027;SDS011;3555;53.248;10.336;2023-03-23T07:49:31;4.77;;;2.20;;
7027;SDS011;3555;53.248;10.336;2023-03-23T07:51:59;2.73;;;2.13;;
7027;SDS011;3555;53.248;10.336;2023-03-23T07:54:27;3.23;;;1.93;;
7027;SDS011;3555;53.248;10.336;2023-03-23T07:56:54;3.10;;;2.00;;
7027;SDS011;3555;53.248;10.336;2023-03-23T07:59:21;3.53;;;2.13;;
7027;SDS011;3555;53.248;10.336;2023-03-23T08:01:48;4.40;;;2.40;;
7027;SDS011;3555;53.248;10.336;2023-03-23T08:04:15;4.43;;;2.13;;
7027;SDS011;3555;53.248;10.336;2023-03-23T08:06:42;2.33;;;1.90;;
7027;SDS011;3555;53.248;10.336;2023-03-23T08:09:09;2.97;;;2.30;;
7027;SDS011;3555;53.248;10.336;2023-03-23T08:11:38;3.07;;;2.30;;
7027;SDS011;3555;53.248;10.336;2023-03-23T08:14:05;3.23;;;2.27;;
7027;SDS011;3555;53.248;10.336;2023-03-23T08:16:32;2.30;;;2.07;;
7027;SDS011;3555;53.248;10.336;2023-03-23T08:18:59;2.57;;;1.80;;
7027;SDS011;3555;53.248;10.336;2023-03-23T08:21:26;2.47;;;1.80;;
7027;SDS011;3555;53.248;10.336;2023-03-23T08:23:53;3.37;;;1.73;;
7027;SDS011;3555;53.248;10.336;2023-03-23T08:26:20;1.90;;;1.53;;
7027;SDS011;3555;53.248;10.336;2023-03-23T08:28:49;1.52;;;1.30;;
7027;SDS011;3555;53.248;10.336;2023-03-23T08:31:16;1.90;;;1.60;;
7027;SDS011;3555;53.248;10.336;2023-03-23T08:33:43;3.07;;;1.97;;
7027;SDS011;3555;53.248;10.336;2023-03-23T08:36:10;3.38;;;1.67;;
7027;SDS011;3555;53.248;10.336;2023-03-23T08:38:37;2.10;;;1.52;;
7027;SDS011;3555;53.248;10.336;2023-03-23T08:41:04;2.38;;;1.80;;
7027;SDS011;3555;53.248;10.336;2023-03-23T08:43:32;4.10;;;1.60;;
7027;SDS011;3555;53.248;10.336;2023-03-23T08:46:01;4.03;;;1.73;;
7027;SDS011;3555;53.248;10.336;2023-03-23T08:48:31;2.77;;;1.67;;
7027;SDS011;3555;53.248;10.336;2023-03-23T08:51:00;3.10;;;1.73;;
7027;SDS011;3555;53.248;10.336;2023-03-23T08:53:27;2.30;;;1.93;;
7027;SDS011;3555;53.248;10.336;2023-03-23T08:55:56;2.42;;;1.77;;
7027;SDS011;3555;53.248;10.336;2023-03-23T08:58:28;2.53;;;1.50;;
7027;SDS011;3555;53.248;10.336;2023-03-23T09:00:55;2.20;;;1.80;;
7027;SDS011;3555;53.248;10.336;2023-03-23T09:03:24;3.10;;;2.00;;
7027;SDS011;3555;53.248;10.336;2023-03-23T09:05:51;5.17;;;2.60;;
7027;SDS011;3555;53.248;10.336;2023-03-23T09:08:18;2.67;;;1.90;;
7027;SDS011;3555;53.248;10.336;2023-03-23T09:10:45;2.40;;;1.70;;
7027;SDS011;3555;53.248;10.336;2023-03-23T09:13:14;2.90;;;1.90;;
7027;SDS011;3555;53.248;10.336;2023-03-23T09:15:41;3.90;;;2.20;;
7027;SDS011;3555;53.248;10.336;2023-03-23T09:18:08;3.70;;;2.03;;
7027;SDS011;3555;53.248;10.336;2023-03-23T09:20:36;4.17;;;1.90;;
7027;SDS011;3555;53.248;10.336;2023-03-23T09:23:03;3.77;;;2.57;;
7027;SDS011;3555;53.248;10.336;2023-03-23T09:25:31;7.37;;;2.60;;
7027;SDS011;3555;53.248;10.336;2023-03-23T09:27:58;4.23;;;2.03;;
7027;SDS011;3555;53.248;10.336;2023-03-23T09:30:26;3.50;;;1.80;;
7027;SDS011;3555;53.248;10.336;2023-03-23T09:32:55;2.50;;;1.57;;
7027;SDS011;3555;53.248;10.336;2023-03-23T09:35:23;5.10;;;2.00;;
7027;SDS011;3555;53.248;10.336;2023-03-23T09:37:52;4.13;;;2.00;;
7027;SDS011;3555;53.248;10.336;2023-03-23T09:40:20;3.27;;;1.70;;
7027;SDS011;3555;53.248;10.336;2023-03-23T09:42:51;5.63;;;2.03;;
7027;SDS011;3555;53.248;10.336;2023-03-23T09:45:30;4.00;;;1.97;;
7027;SDS011;3555;53.248;10.336;2023-03-23T09:48:06;4.30;;;1.80;;
7027;SDS011;3555;53.248;10.336;2023-03-23T09:50:52;4.73;;;2.00;;
7027;SDS011;3555;53.248;10.336;2023-03-23T09:53:27;3.83;;;1.70;;
7027;SDS011;3555;53.248;10.336;2023-03-23T09:56:00;7.77;;;2.00;;
7027;SDS011;3555;53.248;10.336;2023-03-23T09:58:28;7.17;;;1.90;;
7027;SDS011;3555;53.248;10.336;2023-03-23T10:00:59;4.10;;;1.63;;
7027;SDS011;3555;53.248;10.336;2023-03-23T10:03:30;6.27;;;1.73;;
7027;SDS011;3555;53.248;10.336;2023-03-23T10:06:00;8.20;;;2.10;;
7027;SDS011;3555;53.248;10.336;2023-03-23T10:08:29;9.13;;;1.93;;
7027;SDS011;3555;53.248;10.336;2023-03-23T10:11:01;6.63;;;2.13;;
7027;SDS011;3555;53.248;10.336;2023-03-23T10:13:43;6.33;;;2.00;;
7027;SDS011;3555;53.248;10.336;2023-03-23T10:16:25;8.27;;;2.00;;
7027;SDS011;3555;53.248;10.336;2023-03-23T10:18:56;5.07;;;1.77;;
7027;SDS011;3555;53.248;10.336;2023-03-23T10:21:29;10.40;;;2.83;;
7027;SDS011;3555;53.248;10.336;2023-03-23T10:23:59;7.93;;;1.87;;
7027;SDS011;3555;53.248;10.336;2023-03-23T10:26:30;7.57;;;2.07;;
7027;SDS011;3555;53.248;10.336;2023-03-23T10:29:08;5.07;;;1.83;;
7027;SDS011;3555;53.248;10.336;2023-03-23T10:31:41;6.80;;;2.40;;
7027;SDS011;3555;53.248;10.336;2023-03-23T10:34:12;6.00;;;1.73;;
7027;SDS011;3555;53.248;10.336;2023-03-23T10:36:50;10.60;;;2.43;;
7027;SDS011;3555;53.248;10.336;2023-03-23T10:39:23;7.83;;;2.30;;
7027;SDS011;3555;53.248;10.336;2023-03-23T10:41:53;8.13;;;2.30;;
7027;SDS011;3555;53.248;10.336;2023-03-23T10:44:21;8.07;;;2.23;;
7027;SDS011;3555;53.248;10.336;2023-03-23T10:46:56;7.83;;;2.20;;
7027;SDS011;3555;53.248;10.336;2023-03-23T10:49:26;7.63;;;2.10;;
7027;SDS011;3555;53.248;10.336;2023-03-23T10:51:59;6.30;;;2.50;;
7027;SDS011;3555;53.248;10.336;2023-03-23T10:54:38;8.83;;;2.30;;
7027;SDS011;3555;53.248;10.336;2023-03-23T10:57:17;10.23;;;2.50;;
7027;SDS011;3555;53.248;10.336;2023-03-23T10:59:48;10.67;;;2.30;;
7027;SDS011;3555;53.248;10.336;2023-03-23T11:02:16;6.20;;;2.17;;
7027;SDS011;3555;53.248;10.336;2023-03-23T11:04:45;7.60;;;2.47;;
7027;SDS011;3555;53.248;10.336;2023-03-23T11:07:16;9.37;;;2.10;;
7027;SDS011;3555;53.248;10.336;2023-03-23T11:09:53;4.93;;;1.77;;
7027;SDS011;3555;53.248;10.336;2023-03-23T11:12:22;7.20;;;1.93;;
7027;SDS011;3555;53.248;10.336;2023-03-23T11:14:49;5.43;;;1.80;;
7027;SDS011;3555;53.248;10.336;2023-03-23T11:17:20;4.40;;;1.60;;
7027;SDS011;3555;53.248;10.336;2023-03-23T11:19:48;6.10;;;1.73;;
7027;SDS011;3555;53.248;10.336;2023-03-23T11:22:16;8.30;;;1.80;;
7027;SDS011;3555;53.248;10.336;2023-03-23T11:24:52;6.80;;;1.70;;
7027;SDS011;3555;53.248;10.336;2023-03-23T11:27:20;8.97;;;1.80;;
7027;SDS011;3555;53.248;10.336;2023-03-23T11:29:49;4.93;;;1.83;;
7027;SDS011;3555;53.248;10.336;2023-03-23T11:32:18;6.73;;;2.03;;
7027;SDS011;3555;53.248;10.336;2023-03-23T11:34:47;7.57;;;1.70;;
7027;SDS011;3555;53.248;10.336;2023-03-23T11:37:19;6.33;;;1.80;;
7027;SDS011;3555;53.248;10.336;2023-03-23T11:39:55;6.30;;;2.23;;
7027;SDS011;3555;53.248;10.336;2023-03-23T11:42:24;5.33;;;1.70;;
7027;SDS011;3555;53.248;10.336;2023-03-23T11:44:55;7.10;;;2.10;;
7027;SDS011;3555;53.248;10.336;2023-03-23T11:47:40;7.47;;;1.73;;
7027;SDS011;3555;53.248;10.336;2023-03-23T11:50:14;4.27;;;1.50;;
7027;SDS011;3555;53.248;10.336;2023-03-23T11:52:49;5.97;;;1.80;;
7027;SDS011;3555;53.248;10.336;2023-03-23T11:55:21;7.83;;;2.27;;
7027;SDS011;3555;53.248;10.336;2023-03-23T11:57:51;4.97;;;1.40;;
7027;SDS011;3555;53.248;10.336;2023-03-23T12:00:20;8.33;;;1.97;;
7027;SDS011;3555;53.248;10.336;2023-03-23T12:02:48;6.40;;;1.90;;
7027;SDS011;3555;53.248;10.336;2023-03-23T12:05:33;7.43;;;2.00;;
7027;SDS011;3555;53.248;10.336;2023-03-23T12:08:19;6.67;;;2.07;;
7027;SDS011;3555;53.248;10.336;2023-03-23T12:10:57;6.70;;;1.90;;
7027;SDS011;3555;53.248;10.336;2023-03-23T12:13:34;8.50;;;2.20;;
7027;SDS011;3555;53.248;10.336;2023-03-23T12:16:17;9.10;;;2.10;;
7027;SDS011;3555;53.248;10.336;2023-03-23T12:18:51;5.90;;;1.90;;
7027;SDS011;3555;53.248;10.336;2023-03-23T12:21:27;7.93;;;2.00;;
7027;SDS011;3555;53.248;10.336;2023-03-23T12:24:02;8.03;;;1.90;;
7027;SDS011;3555;53.248;10.336;2023-03-23T12:26:36;6.67;;;2.20;;
7027;SDS011;3555;53.248;10.336;2023-03-23T12:32:13;5.93;;;2.03;;
7027;SDS011;3555;53.248;10.336;2023-03-23T12:34:58;5.25;;;2.28;;
7027;SDS011;3555;53.248;10.336;2023-03-23T12:37:37;9.00;;;2.30;;
7027;SDS011;3555;53.248;10.336;2023-03-23T12:40:19;6.88;;;2.35;;
7027;SDS011;3555;53.248;10.336;2023-03-23T12:43:08;10.98;;;3.20;;
7027;SDS011;3555;53.248;10.336;2023-03-23T12:49:00;8.95;;;3.10;;
7027;SDS011;3555;53.248;10.336;2023-03-23T12:51:32;4.63;;;2.45;;
7027;SDS011;3555;53.248;10.336;2023-03-23T12:54:05;9.73;;;2.70;;
7027;SDS011;3555;53.248;10.336;2023-03-23T12:56:39;6.00;;;2.38;;
7027;SDS011;3555;53.248;10.336;2023-03-23T12:59:16;5.43;;;2.42;;
7027;SDS011;3555;53.248;10.336;2023-03-23T13:01:47;6.35;;;1.98;;
7027;SDS011;3555;53.248;10.336;2023-03-23T13:04:18;7.90;;;2.80;;
7027;SDS011;3555;53.248;10.336;2023-03-23T13:06:49;5.32;;;2.15;;
7027;SDS011;3555;53.248;10.336;2023-03-23T13:09:17;7.82;;;2.53;;
7027;SDS011;3555;53.248;10.336;2023-03-23T13:11:48;5.95;;;2.17;;
7027;SDS011;3555;53.248;10.336;2023-03-23T13:14:24;7.43;;;2.63;;
7027;SDS011;3555;53.248;10.336;2023-03-23T13:17:00;7.72;;;2.17;;
7027;SDS011;3555;53.248;10.336;2023-03-23T13:19:51;5.65;;;2.47;;
7027;SDS011;3555;53.248;10.336;2023-03-23T13:22:42;7.40;;;2.60;;
7027;SDS011;3555;53.248;10.336;2023-03-23T13:25:15;5.35;;;2.08;;
7027;SDS011;3555;53.248;10.336;2023-03-23T13:27:55;6.82;;;2.10;;
7027;SDS011;3555;53.248;10.336;2023-03-23T13:30:24;5.20;;;1.90;;
7027;SDS011;3555;53.248;10.336;2023-03-23T13:33:00;4.00;;;1.85;;
7027;SDS011;3555;53.248;10.336;2023-03-23T13:35:32;2.55;;;1.40;;
7027;SDS011;3555;53.248;10.336;2023-03-23T13:38:01;5.32;;;1.88;;
7027;SDS011;3555;53.248;10.336;2023-03-23T13:40:41;6.53;;;2.08;;
7027;SDS011;3555;53.248;10.336;2023-03-23T13:43:11;5.22;;;1.50;;
7027;SDS011;3555;53.248;10.336;2023-03-23T13:45:44;4.47;;;1.77;;
7027;SDS011;3555;53.248;10.336;2023-03-23T13:48:19;2.85;;;1.50;;
7027;SDS011;3555;53.248;10.336;2023-03-23T13:50:52;2.33;;;1.42;;
7027;SDS011;3555;53.248;10.336;2023-03-23T13:53:25;2.22;;;1.10;;
7027;SDS011;3555;53.248;10.336;2023-03-23T13:56:05;1.70;;;1.30;;
7027;SDS011;3555;53.248;10.336;2023-03-23T13:58:43;2.53;;;1.30;;
7027;SDS011;3555;53.248;10.336;2023-03-23T14:01:15;2.55;;;1.10;;
7027;SDS011;3555;53.248;10.336;2023-03-23T14:03:45;1.85;;;0.90;;
7027;SDS011;3555;53.248;10.336;2023-03-23T14:06:16;1.90;;;1.02;;
7027;SDS011;3555;53.248;10.336;2023-03-23T14:08:45;3.17;;;1.35;;
7027;SDS011;3555;53.248;10.336;2023-03-23T14:11:17;2.95;;;1.33;;
7027;SDS011;3555;53.248;10.336;2023-03-23T14:13:51;4.25;;;1.33;;
7027;SDS011;3555;53.248;10.336;2023-03-23T14:16:35;3.40;;;1.13;;
7027;SDS011;3555;53.248;10.336;2023-03-23T14:19:04;1.40;;;1.00;;
7027;SDS011;3555;53.248;10.336;2023-03-23T14:21:41;2.20;;;1.10;;
7027;SDS011;3555;53.248;10.336;2023-03-23T14:24:15;1.63;;;1.08;;
7027;SDS011;3555;53.248;10.336;2023-03-23T14:26:44;3.00;;;1.10;;
7027;SDS011;3555;53.248;10.336;2023-03-23T14:29:12;1.58;;;1.00;;
7027;SDS011;3555;53.248;10.336;2023-03-23T14:31:41;3.08;;;1.13;;
7027;SDS011;3555;53.248;10.336;2023-03-23T14:34:11;4.30;;;1.33;;
7027;SDS011;3555;53.248;10.336;2023-03-23T14:36:40;3.58;;;1.60;;
7027;SDS011;3555;53.248;10.336;2023-03-23T14:39:12;3.55;;;1.42;;
7027;SDS011;3555;53.248;10.336;2023-03-23T14:41:43;2.38;;;1.10;;
7027;SDS011;3555;53.248;10.336;2023-03-23T14:44:12;3.17;;;1.30;;
7027;SDS011;3555;53.248;10.336;2023-03-23T14:46:42;2.60;;;1.05;;
7027;SDS011;3555;53.248;10.336;2023-03-23T14:49:11;3.75;;;1.23;;
7027;SDS011;3555;53.248;10.336;2023-03-23T14:51:46;2.55;;;1.00;;
7027;SDS011;3555;53.248;10.336;2023-03-23T14:54:13;4.85;;;1.30;;
7027;SDS011;3555;53.248;10.336;2023-03-23T14:56:41;2.20;;;1.05;;
7027;SDS011;3555;53.248;10.336;2023-03-23T14:59:09;2.53;;;1.17;;
7027;SDS011;3555;53.248;10.336;2023-03-23T15:01:37;1.77;;;1.00;;
7027;SDS011;3555;53.248;10.336;2023-03-23T15:04:08;3.85;;;1.10;;
7027;SDS011;3555;53.248;10.336;2023-03-23T15:06:38;2.15;;;1.30;;
7027;SDS011;3555;53.248;10.336;2023-03-23T15:09:09;1.88;;;1.15;;
7027;SDS011;3555;53.248;10.336;2023-03-23T15:11:38;5.10;;;1.20;;
7027;SDS011;3555;53.248;10.336;2023-03-23T15:14:08;1.80;;;1.00;;
7027;SDS011;3555;53.248;10.336;2023-03-23T15:16:40;3.25;;;1.15;;
7027;SDS011;3555;53.248;10.336;2023-03-23T15:19:15;3.75;;;1.58;;
7027;SDS011;3555;53.248;10.336;2023-03-23T15:21:49;2.85;;;1.08;;
7027;SDS011;3555;53.248;10.336;2023-03-23T15:24:31;3.17;;;1.42;;
7027;SDS011;3555;53.248;10.336;2023-03-23T15:27:03;3.60;;;1.38;;
7027;SDS011;3555;53.248;10.336;2023-03-23T15:29:45;2.88;;;1.30;;
7027;SDS011;3555;53.248;10.336;2023-03-23T15:32:19;1.75;;;1.13;;
7027;SDS011;3555;53.248;10.336;2023-03-23T15:34:49;2.85;;;1.35;;